createdAt,value
2019-03-30T00:01:02.472Z,3.70
2019-03-30T00:03:32.507Z,3.70
2019-03-30T00:06:02.559Z,3.60
2019-03-30T00:08:32.598Z,3.60
2019-03-30T00:11:02.604Z,3.50
2019-03-30T00:13:32.635Z,3.60
2019-03-30T00:16:02.644Z,3.50
2019-03-30T00:18:32.780Z,3.50
2019-03-30T00:21:02.817Z,3.60
2019-03-30T00:23:32.814Z,3.50
2019-03-30T00:26:02.917Z,3.50
2019-03-30T00:28:32.956Z,3.40
2019-03-30T00:31:02.957Z,3.30
2019-03-30T00:33:32.983Z,3.30
2019-03-30T00:36:02.992Z,3.20
2019-03-30T00:38:32.983Z,3.20
2019-03-30T00:41:03.132Z,3.10
2019-03-30T00:43:33.169Z,3.10
2019-03-30T00:46:03.177Z,3.10
2019-03-30T00:48:33.207Z,3.00
2019-03-30T00:51:03.227Z,3.00
2019-03-30T00:53:33.275Z,3.00
2019-03-30T00:56:03.272Z,3.00
2019-03-30T00:58:33.332Z,2.90
2019-03-30T01:01:03.350Z,2.90
2019-03-30T01:03:33.381Z,3.00
2019-03-30T01:06:03.452Z,3.00
2019-03-30T01:08:33.455Z,3.00
2019-03-30T01:11:03.637Z,2.80
2019-03-30T01:13:33.639Z,2.80
2019-03-30T01:16:03.673Z,2.80
2019-03-30T01:18:33.709Z,2.80
2019-03-30T01:21:03.823Z,2.80
2019-03-30T01:23:33.838Z,2.80
2019-03-30T01:26:03.876Z,2.70
2019-03-30T01:28:33.972Z,2.80
2019-03-30T01:31:04.035Z,2.80
2019-03-30T01:33:34.055Z,2.80
2019-03-30T01:36:04.056Z,2.80
2019-03-30T01:38:34.094Z,2.80
2019-03-30T01:41:04.104Z,2.70
2019-03-30T01:43:34.107Z,2.70
2019-03-30T01:46:04.149Z,2.70
2019-03-30T01:48:34.172Z,2.70
2019-03-30T01:51:04.185Z,2.60
2019-03-30T01:53:34.252Z,2.60
2019-03-30T01:56:04.294Z,2.50
2019-03-30T01:58:34.325Z,2.40
2019-03-30T02:01:04.710Z,2.40
2019-03-30T02:03:34.744Z,2.40
2019-03-30T02:06:05.341Z,2.40
2019-03-30T02:08:35.369Z,2.30
2019-03-30T02:11:05.382Z,2.30
2019-03-30T02:13:35.416Z,2.30
2019-03-30T02:16:05.416Z,2.30
2019-03-30T02:18:35.472Z,2.20
2019-03-30T02:21:05.481Z,2.10
2019-03-30T02:23:35.486Z,2.10
2019-03-30T02:26:05.636Z,2.10
2019-03-30T02:28:35.640Z,2.00
2019-03-30T02:31:24.478Z,2.10
2019-03-30T02:33:54.529Z,2.00
2019-03-30T02:36:24.586Z,2.10
2019-03-30T02:38:54.639Z,2.00
2019-03-30T02:41:43.415Z,1.90
2019-03-30T02:44:32.237Z,1.90
2019-03-30T02:47:21.049Z,1.90
2019-03-30T02:50:09.880Z,1.90
2019-03-30T02:52:39.923Z,1.90
2019-03-30T02:55:28.730Z,1.80
2019-03-30T02:58:17.517Z,1.80
2019-03-30T03:00:47.593Z,1.70
2019-03-30T03:03:36.472Z,1.70
2019-03-30T03:06:25.265Z,1.60
2019-03-30T03:09:07.827Z,1.60
2019-03-30T03:11:49.299Z,1.60
2019-03-30T03:14:19.352Z,1.60
2019-03-30T03:17:08.162Z,1.50
2019-03-30T03:19:56.983Z,1.50
2019-03-30T03:22:45.760Z,1.40
2019-03-30T03:25:15.852Z,1.40
2019-03-30T03:28:04.635Z,1.50
2019-03-30T03:33:29.425Z,1.50
2019-03-30T03:35:59.605Z,1.50
2019-03-30T03:38:29.662Z,1.50
2019-03-30T03:40:59.894Z,1.50
2019-03-30T03:43:30.040Z,1.60
2019-03-30T03:46:00.130Z,1.50
2019-03-30T03:48:30.277Z,1.50
2019-03-30T03:51:03.559Z,1.50
2019-03-30T03:53:52.341Z,1.40
2019-03-30T03:59:21.033Z,1.40
2019-03-30T04:02:02.220Z,1.30
2019-03-30T04:04:47.042Z,1.30
2019-03-30T04:07:17.027Z,1.30
2019-03-30T04:10:26.194Z,1.30
2019-03-30T04:13:15.012Z,1.20
2019-03-30T04:16:03.843Z,1.20
2019-03-30T04:22:01.985Z,1.00
2019-03-30T04:24:50.911Z,1.00
2019-03-30T04:27:22.547Z,0.90
2019-03-30T04:30:11.434Z,0.90
2019-03-30T04:33:00.240Z,0.90
2019-03-30T04:35:49.013Z,0.80
2019-03-30T04:38:19.140Z,0.80
2019-03-30T04:41:07.914Z,0.80
2019-03-30T04:43:56.740Z,0.80
2019-03-30T04:46:45.513Z,0.70
2019-03-30T04:49:15.571Z,0.70
2019-03-30T04:52:04.367Z,0.70
2019-03-30T04:54:53.210Z,0.70
2019-03-30T04:57:23.208Z,0.70
2019-03-30T05:00:12.264Z,0.70
2019-03-30T05:03:01.053Z,0.70
2019-03-30T05:11:21.915Z,0.60
2019-03-30T05:13:51.953Z,0.60
2019-03-30T05:16:22.008Z,0.60
2019-03-30T05:18:52.073Z,0.70
2019-03-30T05:21:22.093Z,0.70
2019-03-30T05:23:52.172Z,0.70
2019-03-30T05:26:22.321Z,0.80
2019-03-30T05:28:52.343Z,0.70
2019-03-30T05:31:22.361Z,0.80
2019-03-30T05:33:52.426Z,0.80
2019-03-30T05:36:22.449Z,0.80
2019-03-30T05:38:52.475Z,0.80
2019-03-30T05:41:22.532Z,0.80
2019-03-30T05:43:52.595Z,0.80
2019-03-30T05:46:22.681Z,0.80
2019-03-30T05:48:52.694Z,1.00
2019-03-30T05:51:22.876Z,1.00
2019-03-30T05:53:52.925Z,1.10
2019-03-30T05:56:23.030Z,1.10
2019-03-30T05:58:53.077Z,1.20
2019-03-30T06:01:23.186Z,1.30
2019-03-30T06:03:53.160Z,1.40
2019-03-30T06:06:23.237Z,1.50
2019-03-30T06:08:53.303Z,1.60
2019-03-30T06:11:23.344Z,1.70
2019-03-30T06:13:53.426Z,1.80
2019-03-30T06:16:23.481Z,1.90
2019-03-30T06:18:53.503Z,2.00
2019-03-30T06:21:23.748Z,2.20
2019-03-30T06:23:53.845Z,2.30
2019-03-30T06:26:23.903Z,2.60
2019-03-30T06:28:53.921Z,2.70
2019-03-30T06:31:23.966Z,2.80
2019-03-30T06:33:54.004Z,2.90
2019-03-30T06:36:24.026Z,3.10
2019-03-30T06:38:54.128Z,3.10
2019-03-30T06:41:24.169Z,3.20
2019-03-30T06:43:54.205Z,3.40
2019-03-30T06:46:24.243Z,3.60
2019-03-30T06:48:54.339Z,3.60
2019-03-30T06:51:24.378Z,3.80
2019-03-30T06:53:54.389Z,3.90
2019-03-30T06:56:24.480Z,4.00
2019-03-30T06:58:54.527Z,4.20
2019-03-30T07:01:24.711Z,4.50
2019-03-30T07:03:55.044Z,4.70
2019-03-30T07:06:25.471Z,4.80
2019-03-30T07:08:57.232Z,4.90
2019-03-30T07:11:30.500Z,5.10
2019-03-30T07:14:03.942Z,5.20
2019-03-30T07:16:36.937Z,5.30
2019-03-30T07:19:06.981Z,5.50
2019-03-30T07:21:37.052Z,5.90
2019-03-30T07:24:07.093Z,6.00
2019-03-30T07:26:37.136Z,6.10
2019-03-30T07:29:07.237Z,6.30
2019-03-30T07:31:37.284Z,6.30
2019-03-30T07:34:07.348Z,6.40
2019-03-30T07:36:37.364Z,6.60
2019-03-30T07:39:07.703Z,6.80
2019-03-30T07:41:37.713Z,7.00
2019-03-30T07:44:07.822Z,7.10
2019-03-30T07:46:37.874Z,7.40
2019-03-30T07:49:07.882Z,7.60
2019-03-30T07:51:37.941Z,7.70
2019-03-30T07:54:07.947Z,7.90
2019-03-30T07:56:38.002Z,8.10
2019-03-30T07:59:08.024Z,8.20
2019-03-30T08:01:38.079Z,8.40
2019-03-30T08:04:08.093Z,8.40
2019-03-30T08:06:38.180Z,8.60
2019-03-30T08:09:08.223Z,8.90
2019-03-30T08:11:38.228Z,9.10
2019-03-30T08:14:08.288Z,9.30
2019-03-30T08:16:38.301Z,9.50
2019-03-30T08:19:08.329Z,9.50
2019-03-30T08:21:38.349Z,9.70
2019-03-30T08:24:08.452Z,10.00
2019-03-30T08:26:38.484Z,10.10
2019-03-30T08:29:08.557Z,10.20
2019-03-30T08:31:38.603Z,10.30
2019-03-30T08:34:08.603Z,10.50
2019-03-30T08:36:38.656Z,10.80
2019-03-30T08:39:08.938Z,10.90
2019-03-30T08:41:38.949Z,11.10
2019-03-30T08:44:09.021Z,11.30
2019-03-30T08:46:39.073Z,11.40
2019-03-30T08:49:09.252Z,11.60
2019-03-30T08:51:39.303Z,11.70
2019-03-30T08:54:09.448Z,11.70
2019-03-30T08:56:39.459Z,11.90
2019-03-30T08:59:09.508Z,12.10
2019-03-30T09:01:39.604Z,12.10
2019-03-30T09:04:09.641Z,12.10
2019-03-30T09:06:39.685Z,12.20
2019-03-30T09:09:09.840Z,12.20
2019-03-30T09:11:43.181Z,12.20
2019-03-30T09:14:11.610Z,12.30
2019-03-30T09:16:41.641Z,12.60
2019-03-30T09:19:11.697Z,12.70
2019-03-30T09:21:41.724Z,12.70
2019-03-30T09:24:11.760Z,12.70
2019-03-30T09:26:41.804Z,12.80
2019-03-30T09:29:11.832Z,12.80
2019-03-30T09:31:41.903Z,12.90
2019-03-30T09:34:11.918Z,13.00
2019-03-30T09:36:42.048Z,13.20
2019-03-30T09:39:12.155Z,13.30
2019-03-30T09:41:42.198Z,13.40
2019-03-30T09:44:12.233Z,13.60
2019-03-30T09:46:42.303Z,13.50
2019-03-30T09:49:12.297Z,13.50
2019-03-30T09:51:42.350Z,13.60
2019-03-30T09:54:23.179Z,13.70
2019-03-30T09:56:44.196Z,13.90
2019-03-30T09:59:14.213Z,13.90
2019-03-30T10:01:44.229Z,14.00
2019-03-30T10:04:14.272Z,14.20
2019-03-30T10:06:44.312Z,14.30
2019-03-30T10:09:14.369Z,14.40
2019-03-30T10:11:44.426Z,14.50
2019-03-30T10:14:14.440Z,14.40
2019-03-30T10:16:44.481Z,14.40
2019-03-30T10:19:14.500Z,14.40
2019-03-30T10:21:44.540Z,14.60
2019-03-30T10:24:14.552Z,14.90
2019-03-30T10:26:44.589Z,15.00
2019-03-30T10:29:14.601Z,15.00
2019-03-30T10:31:44.660Z,15.20
2019-03-30T10:34:14.676Z,15.20
2019-03-30T10:36:44.685Z,15.20
2019-03-30T10:39:14.737Z,15.30
2019-03-30T10:41:44.790Z,15.50
2019-03-30T10:44:14.816Z,15.30
2019-03-30T10:46:44.870Z,15.10
2019-03-30T10:49:14.943Z,15.20
2019-03-30T10:51:44.941Z,15.40
2019-03-30T10:54:14.948Z,15.30
2019-03-30T10:56:45.031Z,15.60
2019-03-30T10:59:15.035Z,15.90
2019-03-30T11:01:45.710Z,16.10
2019-03-30T11:04:15.716Z,16.20
2019-03-30T11:06:45.789Z,16.00
2019-03-30T11:09:15.883Z,16.00
2019-03-30T11:11:45.884Z,16.00
2019-03-30T11:14:15.927Z,16.20
2019-03-30T11:16:45.935Z,16.20
2019-03-30T11:19:15.976Z,16.10
2019-03-30T11:21:46.000Z,16.20
2019-03-30T11:24:16.043Z,16.20
2019-03-30T11:26:46.044Z,16.00
2019-03-30T11:29:16.099Z,16.00
2019-03-30T11:31:46.139Z,16.30
2019-03-30T11:34:16.180Z,16.50
2019-03-30T11:36:46.235Z,16.80
2019-03-30T11:39:16.240Z,16.60
2019-03-30T11:41:46.292Z,16.90
2019-03-30T11:44:16.312Z,17.10
2019-03-30T11:46:46.340Z,17.10
2019-03-30T11:49:16.413Z,17.30
2019-03-30T11:51:46.416Z,17.50
2019-03-30T11:54:16.428Z,17.70
2019-03-30T11:56:46.463Z,17.70
2019-03-30T11:59:16.486Z,17.30
2019-03-30T12:01:46.496Z,17.70
2019-03-30T12:04:16.539Z,17.80
2019-03-30T12:06:46.546Z,18.10
2019-03-30T12:09:16.630Z,18.40
2019-03-30T12:11:46.631Z,18.50
2019-03-30T12:14:16.704Z,18.20
2019-03-30T12:16:46.708Z,17.80
2019-03-30T12:19:16.748Z,18.00
2019-03-30T12:21:46.754Z,18.40
2019-03-30T12:24:17.025Z,18.80
2019-03-30T12:26:47.048Z,19.20
2019-03-30T12:29:17.051Z,19.70
2019-03-30T12:31:47.084Z,19.70
2019-03-30T12:34:17.116Z,19.90
2019-03-30T12:36:47.136Z,19.40
2019-03-30T12:39:17.187Z,19.30
2019-03-30T12:41:47.198Z,19.60
2019-03-30T12:44:17.232Z,19.80
2019-03-30T12:46:47.244Z,20.00
2019-03-30T12:49:17.276Z,19.00
2019-03-30T12:51:47.283Z,19.40
2019-03-30T12:54:17.366Z,19.40
2019-03-30T12:56:47.419Z,19.30
2019-03-30T12:59:17.432Z,19.60
2019-03-30T13:01:47.508Z,19.80
2019-03-30T13:04:17.548Z,20.20
2019-03-30T13:06:47.567Z,20.40
2019-03-30T13:09:17.611Z,20.70
2019-03-30T13:11:47.632Z,19.70
2019-03-30T13:14:17.633Z,20.10
2019-03-30T13:16:47.665Z,20.30
2019-03-30T13:19:17.664Z,20.60
2019-03-30T13:21:52.941Z,20.90
2019-03-30T13:24:19.335Z,21.30
2019-03-30T13:26:49.388Z,21.50
2019-03-30T13:29:19.412Z,21.60
2019-03-30T13:31:49.449Z,21.90
2019-03-30T13:34:19.453Z,21.80
2019-03-30T13:36:49.460Z,21.80
2019-03-30T13:39:19.508Z,21.60
2019-03-30T13:41:49.517Z,21.90
2019-03-30T13:44:19.573Z,21.90
2019-03-30T13:46:49.587Z,22.20
2019-03-30T13:49:19.624Z,22.00
2019-03-30T13:51:49.616Z,22.60
2019-03-30T13:54:19.644Z,22.90
2019-03-30T13:56:49.652Z,22.90
2019-03-30T13:59:19.680Z,22.40
2019-03-30T14:01:49.682Z,22.50
2019-03-30T14:04:19.716Z,22.20
2019-03-30T14:06:49.719Z,22.70
2019-03-30T14:09:19.756Z,22.90
2019-03-30T14:11:49.980Z,23.30
2019-03-30T14:14:20.019Z,23.00
2019-03-30T14:16:50.010Z,22.10
2019-03-30T14:19:20.050Z,22.20
2019-03-30T14:21:50.049Z,22.50
2019-03-30T14:24:20.093Z,22.30
2019-03-30T14:26:50.116Z,23.20
2019-03-30T14:29:20.137Z,23.30
2019-03-30T14:32:08.939Z,23.50
2019-03-30T14:34:39.026Z,23.30
2019-03-30T14:37:09.028Z,23.20
2019-03-30T14:39:39.092Z,23.30
2019-03-30T14:42:09.230Z,23.40
2019-03-30T14:44:39.307Z,23.90
2019-03-30T14:47:28.074Z,23.60
2019-03-30T14:50:16.884Z,24.00
2019-03-30T14:56:13.584Z,23.90
2019-03-30T14:58:43.640Z,23.40
2019-03-30T15:01:24.336Z,23.70
2019-03-30T15:04:04.976Z,23.50
2019-03-30T15:06:35.061Z,23.50
2019-03-30T15:09:25.330Z,23.80
2019-03-30T15:12:06.844Z,23.50
2019-03-30T15:14:36.987Z,23.70
2019-03-30T15:17:25.858Z,24.00
2019-03-30T15:20:14.767Z,24.10
2019-03-30T15:23:03.560Z,24.30
2019-03-30T15:25:33.610Z,24.50
2019-03-30T15:28:03.624Z,24.80
2019-03-30T15:30:33.786Z,24.90
2019-03-30T15:33:22.492Z,24.60
2019-03-30T15:36:11.338Z,24.80
2019-03-30T15:38:41.359Z,24.20
2019-03-30T15:41:11.412Z,23.50
2019-03-30T15:43:41.428Z,24.20
2019-03-30T15:49:24.270Z,24.70
2019-03-30T15:54:48.931Z,24.80
2019-03-30T15:57:37.813Z,24.00
2019-03-30T16:00:26.704Z,24.20
2019-03-30T16:02:56.863Z,23.50
2019-03-30T16:05:26.958Z,23.70
2019-03-30T16:08:16.772Z,23.10
2019-03-30T16:10:47.203Z,23.60
2019-03-30T16:13:28.661Z,23.40
2019-03-30T16:16:10.157Z,23.40
2019-03-30T16:18:40.201Z,23.60
2019-03-30T16:21:29.028Z,23.60
2019-03-30T16:24:17.842Z,23.80
2019-03-30T16:27:06.637Z,23.20
2019-03-30T16:29:36.708Z,23.80
2019-03-30T16:32:25.502Z,23.70
2019-03-30T16:35:14.316Z,23.40
2019-03-30T16:37:44.344Z,23.00
2019-03-30T16:40:33.154Z,23.00
2019-03-30T16:43:21.947Z,22.80
2019-03-30T16:46:10.757Z,22.10
2019-03-30T16:48:40.806Z,21.70
2019-03-30T16:51:10.852Z,21.50
2019-03-30T16:53:40.961Z,21.20
2019-03-30T16:56:29.764Z,21.20
2019-03-30T16:59:18.598Z,21.80
2019-03-30T17:01:48.620Z,21.50
2019-03-30T17:04:37.445Z,21.80
2019-03-30T17:07:26.304Z,21.90
2019-03-30T17:10:15.091Z,21.40
2019-03-30T17:13:03.900Z,21.30
2019-03-30T17:15:33.961Z,20.50
2019-03-30T17:18:03.990Z,19.80
2019-03-30T17:20:34.059Z,19.30
2019-03-30T17:23:04.123Z,18.90
2019-03-30T17:25:34.128Z,18.60
2019-03-30T17:28:22.952Z,18.30
2019-03-30T17:30:52.972Z,18.10
2019-03-30T17:33:23.025Z,17.70
2019-03-30T17:36:11.885Z,17.50
2019-03-30T17:39:00.663Z,17.30
2019-03-30T17:41:30.717Z,17.00
2019-03-30T17:44:19.581Z,16.70
2019-03-30T17:47:08.406Z,16.50
2019-03-30T17:49:57.204Z,16.20
2019-03-30T17:52:27.281Z,15.90
2019-03-30T17:55:16.106Z,15.60
2019-03-30T17:58:13.051Z,15.30
2019-03-30T18:00:55.435Z,15.10
2019-03-30T18:03:25.537Z,14.90
2019-03-30T18:06:14.424Z,14.70
2019-03-30T18:11:58.832Z,14.40
2019-03-30T18:14:28.878Z,14.20
2019-03-30T18:17:09.809Z,14.00
2019-03-30T18:19:50.694Z,13.80
2019-03-30T18:22:34.475Z,13.60
2019-03-30T18:25:06.156Z,13.50
2019-03-30T18:27:36.278Z,13.30
2019-03-30T18:30:43.219Z,13.20
2019-03-30T18:33:32.036Z,13.00
2019-03-30T18:36:21.142Z,12.90
2019-03-30T18:39:10.403Z,12.70
2019-03-30T18:41:59.199Z,12.50
2019-03-30T18:44:29.352Z,12.50
2019-03-30T18:46:59.389Z,12.30
2019-03-30T18:49:29.413Z,12.10
2019-03-30T18:52:18.424Z,12.00
2019-03-30T18:58:01.495Z,11.70
2019-03-30T19:00:31.616Z,11.60
2019-03-30T19:03:01.673Z,11.50
2019-03-30T19:05:31.709Z,11.40
2019-03-30T19:10:55.815Z,11.20
2019-03-30T19:13:25.828Z,11.00
2019-03-30T19:16:06.779Z,10.90
2019-03-30T19:18:47.571Z,10.80
2019-03-30T19:21:17.608Z,10.80
2019-03-30T19:24:06.461Z,10.60
2019-03-30T19:26:55.253Z,10.50
2019-03-30T19:29:25.303Z,10.40
2019-03-30T19:32:14.109Z,10.40
2019-03-30T19:37:57.140Z,10.20
2019-03-30T19:40:27.231Z,10.10
2019-03-30T19:43:16.016Z,9.90
2019-03-30T19:48:59.317Z,9.70
2019-03-30T19:51:29.368Z,9.60
2019-03-30T19:54:18.183Z,9.50
2019-03-30T20:00:25.346Z,9.30
2019-03-30T20:03:14.514Z,9.30
2019-03-30T20:06:22.384Z,9.20
2019-03-30T20:12:08.121Z,9.10
2019-03-30T20:14:57.187Z,9.00
2019-03-30T20:17:27.873Z,8.90
2019-03-30T20:29:05.913Z,8.50
2019-03-30T20:31:54.830Z,8.40
2019-03-30T20:34:24.838Z,8.40
2019-03-30T20:36:54.931Z,8.30
2019-03-30T20:39:24.912Z,8.20
2019-03-30T20:41:54.975Z,8.30
2019-03-30T20:44:25.099Z,8.20
2019-03-30T20:46:55.116Z,8.10
2019-03-30T20:49:25.187Z,8.00
2019-03-30T20:51:55.173Z,7.90
2019-03-30T20:54:25.253Z,7.90
2019-03-30T20:56:55.300Z,7.80
2019-03-30T20:59:39.018Z,7.80
2019-03-30T21:01:57.040Z,7.70
2019-03-30T21:04:27.063Z,7.70
2019-03-30T21:06:57.092Z,7.70
2019-03-30T21:09:27.113Z,7.60
2019-03-30T21:11:57.150Z,7.50
2019-03-30T21:14:27.148Z,7.50
2019-03-30T21:16:57.176Z,7.40
2019-03-30T21:19:27.224Z,7.40
2019-03-30T21:21:57.266Z,7.30
2019-03-30T21:24:27.386Z,7.30
2019-03-30T21:26:57.415Z,7.30
2019-03-30T21:29:27.469Z,7.20
2019-03-30T21:31:57.455Z,7.10
2019-03-30T21:34:27.484Z,7.10
2019-03-30T21:36:57.492Z,7.00
2019-03-30T21:39:27.536Z,6.90
2019-03-30T21:41:57.537Z,6.90
2019-03-30T21:44:27.632Z,6.80
2019-03-30T21:46:57.656Z,6.80
2019-03-30T21:49:30.882Z,6.80
2019-03-30T21:51:59.404Z,6.70
2019-03-30T21:54:29.412Z,6.60
2019-03-30T21:56:59.448Z,6.70
2019-03-30T21:59:29.549Z,6.60
2019-03-30T22:01:59.588Z,6.50
2019-03-30T22:04:29.585Z,6.50
2019-03-30T22:07:00.294Z,6.40
2019-03-30T22:09:31.381Z,6.40
2019-03-30T22:12:01.407Z,6.30
2019-03-30T22:14:31.424Z,6.20
2019-03-30T22:17:01.435Z,6.20
2019-03-30T22:19:31.485Z,6.10
2019-03-30T22:22:01.499Z,6.00
2019-03-30T22:24:31.538Z,6.00
2019-03-30T22:27:01.580Z,5.90
2019-03-30T22:29:31.587Z,5.90
2019-03-30T22:32:01.775Z,5.80
2019-03-30T22:34:32.138Z,5.70
2019-03-30T22:37:02.165Z,5.70
2019-03-30T22:39:32.159Z,5.60
2019-03-30T22:42:02.697Z,5.60
2019-03-30T22:44:32.704Z,5.50
2019-03-30T22:47:02.792Z,5.50
2019-03-30T22:49:32.840Z,5.40
2019-03-30T22:52:02.896Z,5.40
2019-03-30T22:54:32.919Z,5.40
2019-03-30T22:57:02.935Z,5.30
2019-03-30T22:59:32.957Z,5.30
2019-03-30T23:02:03.204Z,5.20
2019-03-30T23:04:33.228Z,5.20
2019-03-30T23:07:03.261Z,5.10
2019-03-30T23:09:33.305Z,5.10
2019-03-30T23:12:03.629Z,5.10
2019-03-30T23:14:33.673Z,5.00
2019-03-30T23:17:03.708Z,5.10
2019-03-30T23:19:33.727Z,5.10
2019-03-30T23:22:03.786Z,5.10
2019-03-30T23:24:33.780Z,5.00
2019-03-30T23:27:03.864Z,5.00
2019-03-30T23:29:33.859Z,4.90
2019-03-30T23:32:07.619Z,4.90
2019-03-30T23:34:37.615Z,4.90
2019-03-30T23:37:07.733Z,4.80
2019-03-30T23:39:37.659Z,4.80
2019-03-30T23:42:07.683Z,4.70
2019-03-30T23:44:37.712Z,4.70
2019-03-30T23:47:07.724Z,4.70
2019-03-30T23:49:37.749Z,4.60
2019-03-30T23:52:07.749Z,4.60
2019-03-30T23:54:37.780Z,4.60
2019-03-30T23:57:07.807Z,4.60
2019-03-30T23:59:37.831Z,4.60
